createdAt,value
2022-11-21T00:00:59.095Z,0.00
2022-11-21T00:01:59.067Z,0.00
2022-11-21T00:02:59.040Z,0.00
2022-11-21T00:03:59.050Z,0.00
2022-11-21T00:04:59.026Z,0.00
2022-11-21T00:05:59.018Z,0.00
2022-11-21T00:06:59.069Z,0.00
2022-11-21T00:07:59.000Z,0.00
2022-11-21T00:08:58.980Z,0.00
2022-11-21T00:09:58.969Z,0.00
2022-11-21T00:10:58.959Z,0.00
2022-11-21T00:11:58.956Z,0.00
2022-11-21T00:12:58.947Z,0.00
2022-11-21T00:13:58.925Z,0.00
2022-11-21T00:14:58.921Z,0.00
2022-11-21T00:15:58.902Z,0.00
2022-11-21T00:16:58.928Z,0.00
2022-11-21T00:17:58.882Z,0.00
2022-11-21T00:18:58.881Z,0.00
2022-11-21T00:19:58.859Z,0.00
2022-11-21T00:20:58.851Z,0.00
2022-11-21T00:21:58.836Z,0.00
2022-11-21T00:22:58.839Z,0.00
2022-11-21T00:23:58.846Z,0.00
2022-11-21T00:24:58.815Z,0.00
2022-11-21T00:25:58.793Z,0.00
2022-11-21T00:26:58.783Z,0.00
2022-11-21T00:27:58.782Z,0.00
2022-11-21T00:28:58.771Z,0.00
2022-11-21T00:29:58.748Z,0.00
2022-11-21T00:30:58.744Z,0.00
2022-11-21T00:31:58.728Z,0.00
2022-11-21T00:32:58.726Z,0.00
2022-11-21T00:33:58.710Z,0.00
2022-11-21T00:34:58.696Z,0.00
2022-11-21T00:35:58.683Z,0.00
2022-11-21T00:36:58.688Z,0.00
2022-11-21T00:37:58.662Z,0.00
2022-11-21T00:38:58.677Z,0.00
2022-11-21T00:39:58.646Z,0.00
2022-11-21T00:40:58.635Z,0.00
2022-11-21T00:41:58.622Z,0.00
2022-11-21T00:42:58.635Z,0.00
2022-11-21T00:43:58.631Z,0.00
2022-11-21T00:44:58.606Z,0.00
2022-11-21T00:45:58.580Z,0.00
2022-11-21T00:46:58.566Z,0.00
2022-11-21T00:47:58.551Z,0.00
2022-11-21T00:48:58.565Z,0.00
2022-11-21T00:49:58.544Z,0.00
2022-11-21T00:50:58.585Z,0.00
2022-11-21T00:51:58.513Z,0.00
2022-11-21T00:52:58.513Z,0.00
2022-11-21T00:53:58.504Z,0.00
2022-11-21T00:54:58.505Z,0.00
2022-11-21T00:55:58.461Z,0.00
2022-11-21T00:56:58.461Z,0.00
2022-11-21T00:57:58.438Z,0.00
2022-11-21T00:58:58.444Z,0.00
2022-11-21T00:59:58.467Z,0.00
2022-11-21T01:00:58.447Z,0.00
2022-11-21T01:01:58.414Z,0.00
2022-11-21T01:02:58.408Z,0.00
2022-11-21T01:03:58.381Z,0.00
2022-11-21T01:04:58.382Z,0.00
2022-11-21T01:05:58.386Z,0.00
2022-11-21T01:06:58.549Z,0.00
2022-11-21T01:07:58.339Z,0.00
2022-11-21T01:08:58.337Z,0.00
2022-11-21T01:09:58.328Z,0.00
2022-11-21T01:10:58.317Z,0.00
2022-11-21T01:11:58.310Z,0.00
2022-11-21T01:12:58.294Z,0.00
2022-11-21T01:13:58.278Z,0.00
2022-11-21T01:14:58.269Z,0.00
2022-11-21T01:15:58.257Z,0.00
2022-11-21T01:16:58.271Z,0.00
2022-11-21T01:17:58.244Z,0.00
2022-11-21T01:18:58.237Z,0.00
2022-11-21T01:19:58.206Z,0.00
2022-11-21T01:20:58.202Z,0.00
2022-11-21T01:21:58.209Z,0.00
2022-11-21T01:22:58.213Z,0.00
2022-11-21T01:23:58.172Z,0.00
2022-11-21T01:24:58.178Z,0.00
2022-11-21T01:25:58.146Z,0.00
2022-11-21T01:26:58.152Z,0.00
2022-11-21T01:27:58.145Z,0.00
2022-11-21T01:28:58.131Z,0.00
2022-11-21T01:29:58.129Z,0.00
2022-11-21T01:30:58.111Z,0.00
2022-11-21T01:31:58.096Z,0.00
2022-11-21T01:32:58.086Z,0.00
2022-11-21T01:33:58.065Z,0.00
2022-11-21T01:34:58.062Z,0.00
2022-11-21T01:35:58.038Z,0.00
2022-11-21T01:36:58.050Z,0.00
2022-11-21T01:37:58.030Z,0.00
2022-11-21T01:38:58.027Z,0.00
2022-11-21T01:39:58.007Z,0.00
2022-11-21T01:40:58.003Z,0.00
2022-11-21T01:41:58.010Z,0.00
2022-11-21T01:42:57.981Z,0.00
2022-11-21T01:43:58.007Z,0.00
2022-11-21T01:44:57.957Z,0.00
2022-11-21T01:45:57.943Z,0.00
2022-11-21T01:46:57.942Z,0.00
2022-11-21T01:47:57.920Z,0.00
2022-11-21T01:48:57.919Z,0.00
2022-11-21T01:49:57.897Z,0.00
2022-11-21T01:50:57.904Z,0.00
2022-11-21T01:51:57.904Z,0.00
2022-11-21T01:52:57.868Z,0.00
2022-11-21T01:53:57.868Z,0.00
2022-11-21T01:54:57.839Z,0.00
2022-11-21T01:55:57.827Z,0.00
2022-11-21T01:56:57.829Z,0.00
2022-11-21T01:57:57.803Z,0.00
2022-11-21T01:58:57.820Z,0.00
2022-11-21T01:59:57.813Z,0.00
2022-11-21T02:00:57.835Z,0.00
2022-11-21T02:01:57.775Z,0.00
2022-11-21T02:02:57.753Z,0.00
2022-11-21T02:03:57.755Z,0.00
2022-11-21T02:04:57.752Z,0.00
2022-11-21T02:05:57.735Z,0.00
2022-11-21T02:06:57.741Z,0.00
2022-11-21T02:07:57.710Z,0.00
2022-11-21T02:08:57.712Z,0.00
2022-11-21T02:09:57.695Z,0.00
2022-11-21T02:10:57.688Z,0.00
2022-11-21T02:11:57.689Z,0.00
2022-11-21T02:12:57.671Z,0.00
2022-11-21T02:13:57.654Z,0.00
2022-11-21T02:14:57.630Z,0.00
2022-11-21T02:15:57.632Z,0.00
2022-11-21T02:16:57.610Z,0.00
2022-11-21T02:17:57.622Z,0.00
2022-11-21T02:18:57.587Z,0.00
2022-11-21T02:19:57.588Z,0.00
2022-11-21T02:20:57.588Z,0.00
2022-11-21T02:21:57.593Z,0.00
2022-11-21T02:22:57.561Z,0.00
2022-11-21T02:24:00.345Z,0.00
2022-11-21T02:24:57.523Z,0.00
2022-11-21T02:25:57.518Z,0.00
2022-11-21T02:26:57.528Z,0.00
2022-11-21T02:27:57.507Z,0.00
2022-11-21T02:28:57.513Z,0.00
2022-11-21T02:29:57.478Z,0.00
2022-11-21T02:30:57.454Z,0.00
2022-11-21T02:31:57.496Z,0.00
2022-11-21T02:32:57.442Z,0.00
2022-11-21T02:33:57.439Z,0.00
2022-11-21T02:34:57.420Z,0.00
2022-11-21T02:35:57.412Z,0.00
2022-11-21T02:36:57.396Z,0.00
2022-11-21T02:37:57.398Z,0.00
2022-11-21T02:38:57.384Z,0.00
2022-11-21T02:39:57.373Z,0.00
2022-11-21T02:40:57.360Z,0.00
2022-11-21T02:41:57.352Z,0.00
2022-11-21T02:42:57.358Z,0.00
2022-11-21T02:43:57.332Z,0.00
2022-11-21T02:44:57.312Z,0.00
2022-11-21T02:45:57.363Z,0.00
2022-11-21T02:46:57.292Z,0.00
2022-11-21T02:48:03.369Z,0.00
2022-11-21T02:48:57.285Z,0.00
2022-11-21T02:49:57.271Z,0.00
2022-11-21T02:50:57.248Z,0.00
2022-11-21T02:51:57.248Z,0.00
2022-11-21T02:52:57.245Z,0.00
2022-11-21T02:53:57.236Z,0.00
2022-11-21T02:54:57.217Z,0.00
2022-11-21T02:55:57.207Z,0.00
2022-11-21T02:56:57.190Z,0.00
2022-11-21T02:58:03.257Z,0.00
2022-11-21T02:58:57.169Z,0.00
2022-11-21T02:59:57.166Z,0.00
2022-11-21T03:00:57.187Z,0.00
2022-11-21T03:01:57.152Z,0.00
2022-11-21T03:02:57.116Z,0.00
2022-11-21T03:03:57.126Z,0.00
2022-11-21T03:04:57.106Z,0.00
2022-11-21T03:05:57.110Z,0.00
2022-11-21T03:06:57.081Z,0.00
2022-11-21T03:07:57.086Z,0.00
2022-11-21T03:08:57.066Z,0.00
2022-11-21T03:09:57.068Z,0.00
2022-11-21T03:10:57.051Z,0.00
2022-11-21T03:11:57.030Z,0.00
2022-11-21T03:12:57.009Z,0.00
2022-11-21T03:13:57.004Z,0.00
2022-11-21T03:14:56.990Z,0.00
2022-11-21T03:15:56.986Z,0.00
2022-11-21T03:16:56.984Z,0.00
2022-11-21T03:17:56.972Z,0.00
2022-11-21T03:18:56.951Z,0.00
2022-11-21T03:19:56.945Z,0.00
2022-11-21T03:20:56.932Z,0.00
2022-11-21T03:21:56.926Z,0.00
2022-11-21T03:22:56.909Z,0.00
2022-11-21T03:23:56.897Z,0.00
2022-11-21T03:24:56.877Z,0.00
2022-11-21T03:25:56.881Z,0.00
2022-11-21T03:26:56.893Z,0.00
2022-11-21T03:27:56.859Z,0.00
2022-11-21T03:28:56.844Z,0.00
2022-11-21T03:29:56.848Z,0.00
2022-11-21T03:30:56.835Z,0.00
2022-11-21T03:31:56.813Z,0.00
2022-11-21T03:32:56.827Z,0.00
2022-11-21T03:33:56.796Z,0.00
2022-11-21T03:34:56.783Z,0.00
2022-11-21T03:35:56.777Z,0.00
2022-11-21T03:36:56.760Z,0.00
2022-11-21T03:37:56.766Z,0.00
2022-11-21T03:38:56.746Z,0.00
2022-11-21T03:39:56.742Z,0.00
2022-11-21T03:40:56.724Z,0.00
2022-11-21T03:41:56.705Z,0.00
2022-11-21T03:42:56.716Z,0.00
2022-11-21T03:43:56.704Z,0.00
2022-11-21T03:44:56.690Z,0.00
2022-11-21T03:45:56.675Z,0.00
2022-11-21T03:46:56.642Z,0.00
2022-11-21T03:47:56.645Z,0.00
2022-11-21T03:48:56.641Z,0.00
2022-11-21T03:49:56.635Z,0.00
2022-11-21T03:50:56.613Z,0.00
2022-11-21T03:51:56.614Z,0.00
2022-11-21T03:52:56.588Z,0.00
2022-11-21T03:53:56.591Z,0.00
2022-11-21T03:54:56.573Z,0.00
2022-11-21T03:55:56.559Z,0.00
2022-11-21T03:56:56.545Z,0.00
2022-11-21T03:57:56.541Z,0.00
2022-11-21T03:58:56.537Z,0.00
2022-11-21T03:59:56.523Z,0.00
2022-11-21T04:00:56.505Z,0.00
2022-11-21T04:01:56.584Z,0.00
2022-11-21T04:02:56.489Z,0.00
2022-11-21T04:03:56.467Z,0.00
2022-11-21T04:04:56.468Z,0.00
2022-11-21T04:05:56.462Z,0.00
2022-11-21T04:06:56.435Z,0.00
2022-11-21T04:07:56.440Z,0.00
2022-11-21T04:08:56.424Z,0.00
2022-11-21T04:09:56.432Z,0.00
2022-11-21T04:10:56.429Z,0.00
2022-11-21T04:11:56.381Z,0.00
2022-11-21T04:12:56.380Z,0.00
2022-11-21T04:13:56.358Z,0.00
2022-11-21T04:14:56.364Z,0.00
2022-11-21T04:15:56.351Z,0.00
2022-11-21T04:16:56.338Z,0.00
2022-11-21T04:17:56.320Z,0.00
2022-11-21T04:18:56.320Z,0.00
2022-11-21T04:19:56.302Z,0.00
2022-11-21T04:20:56.302Z,0.00
2022-11-21T04:21:56.272Z,0.00
2022-11-21T04:22:56.268Z,0.00
2022-11-21T04:23:56.248Z,0.00
2022-11-21T04:24:56.258Z,0.00
2022-11-21T04:25:56.255Z,0.00
2022-11-21T04:26:56.259Z,0.00
2022-11-21T04:27:56.208Z,0.00
2022-11-21T04:28:56.209Z,0.00
2022-11-21T04:29:56.197Z,0.00
2022-11-21T04:30:58.311Z,0.00
2022-11-21T04:31:56.196Z,0.00
2022-11-21T04:32:56.158Z,0.00
2022-11-21T04:33:56.149Z,0.00
2022-11-21T04:34:56.154Z,0.00
2022-11-21T04:35:56.118Z,0.00
2022-11-21T04:36:56.165Z,0.00
2022-11-21T04:37:56.109Z,0.00
2022-11-21T04:38:56.097Z,0.00
2022-11-21T04:39:56.084Z,0.00
2022-11-21T04:40:56.082Z,0.00
2022-11-21T04:41:56.064Z,0.00
2022-11-21T04:42:56.079Z,0.00
2022-11-21T04:43:56.046Z,0.00
2022-11-21T04:44:56.033Z,0.00
2022-11-21T04:45:56.025Z,0.00
2022-11-21T04:46:56.825Z,0.00
2022-11-21T04:47:56.011Z,0.00
2022-11-21T04:48:55.998Z,0.00
2022-11-21T04:49:55.980Z,0.00
2022-11-21T04:50:55.977Z,0.00
2022-11-21T04:51:55.956Z,0.00
2022-11-21T04:52:55.974Z,0.00
2022-11-21T04:53:55.948Z,0.00
2022-11-21T04:54:55.919Z,0.00
2022-11-21T04:55:55.926Z,0.00
2022-11-21T04:56:55.902Z,0.00
2022-11-21T04:57:55.901Z,0.00
2022-11-21T04:58:55.901Z,0.00
2022-11-21T04:59:55.873Z,0.00
2022-11-21T05:00:55.925Z,0.00
2022-11-21T05:01:55.844Z,0.00
2022-11-21T05:02:55.836Z,0.00
2022-11-21T05:03:55.840Z,0.00
2022-11-21T05:04:55.822Z,0.00
2022-11-21T05:05:55.809Z,0.00
2022-11-21T05:06:55.803Z,0.00
2022-11-21T05:07:55.787Z,0.00
2022-11-21T05:08:55.782Z,0.00
2022-11-21T05:09:55.786Z,0.00
2022-11-21T05:10:55.745Z,0.00
2022-11-21T05:11:55.748Z,0.00
2022-11-21T05:12:55.731Z,0.00
2022-11-21T05:13:55.725Z,0.00
2022-11-21T05:14:55.715Z,0.00
2022-11-21T05:15:55.708Z,0.00
2022-11-21T05:16:55.684Z,0.00
2022-11-21T05:17:55.687Z,0.00
2022-11-21T05:18:55.671Z,0.00
2022-11-21T05:19:55.708Z,0.00
2022-11-21T05:20:55.646Z,0.00
2022-11-21T05:21:55.635Z,0.00
2022-11-21T05:22:55.628Z,0.00
2022-11-21T05:23:55.628Z,0.00
2022-11-21T05:24:55.611Z,0.00
2022-11-21T05:25:55.615Z,0.00
2022-11-21T05:26:55.587Z,0.00
2022-11-21T05:27:55.572Z,0.00
2022-11-21T05:28:55.565Z,0.00
2022-11-21T05:29:55.563Z,0.00
2022-11-21T05:30:55.566Z,0.00
2022-11-21T05:31:55.587Z,0.00
2022-11-21T05:32:55.518Z,0.00
2022-11-21T05:33:55.535Z,0.00
2022-11-21T05:34:55.493Z,0.00
2022-11-21T05:35:55.504Z,0.00
2022-11-21T05:36:55.481Z,0.00
2022-11-21T05:37:55.465Z,0.00
2022-11-21T05:38:55.462Z,0.00
2022-11-21T05:39:55.465Z,0.00
2022-11-21T05:40:55.446Z,0.00
2022-11-21T05:41:59.901Z,0.00
2022-11-21T05:42:55.425Z,0.00
2022-11-21T05:43:55.419Z,0.00
2022-11-21T05:44:55.396Z,0.00
2022-11-21T05:45:55.387Z,0.00
2022-11-21T05:46:55.369Z,0.00
2022-11-21T05:47:55.370Z,0.00
2022-11-21T05:48:55.339Z,0.00
2022-11-21T05:49:55.346Z,0.00
2022-11-21T05:50:55.312Z,0.00
2022-11-21T05:51:55.312Z,0.00
2022-11-21T05:52:55.316Z,0.00
2022-11-21T05:53:55.293Z,0.00
2022-11-21T05:54:55.305Z,0.00
2022-11-21T05:55:55.269Z,0.00
2022-11-21T05:56:55.270Z,0.00
2022-11-21T05:57:55.283Z,0.00
2022-11-21T05:58:55.252Z,0.00
2022-11-21T05:59:55.237Z,0.00
2022-11-21T06:00:59.523Z,0.00
2022-11-21T06:01:55.213Z,0.00
2022-11-21T06:02:55.261Z,0.00
2022-11-21T06:03:55.197Z,0.00
2022-11-21T06:04:55.174Z,0.00
2022-11-21T06:05:55.171Z,0.00
2022-11-21T06:06:55.151Z,0.00
2022-11-21T06:07:55.155Z,0.00
2022-11-21T06:08:55.150Z,0.00
2022-11-21T06:09:55.172Z,0.00
2022-11-21T06:10:55.105Z,0.00
2022-11-21T06:11:55.110Z,0.00
2022-11-21T06:12:55.076Z,0.00
2022-11-21T06:13:55.091Z,0.00
2022-11-21T06:14:55.070Z,4.00
2022-11-21T06:15:55.063Z,4.00
2022-11-21T06:16:55.044Z,0.00
2022-11-21T06:17:55.036Z,4.00
2022-11-21T06:18:58.353Z,4.00
2022-11-21T06:19:55.018Z,4.00
2022-11-21T06:20:55.000Z,4.00
2022-11-21T06:21:54.997Z,4.00
2022-11-21T06:22:54.979Z,4.00
2022-11-21T06:23:54.989Z,8.00
2022-11-21T06:24:54.951Z,8.00
2022-11-21T06:25:54.958Z,8.00
2022-11-21T06:26:54.950Z,12.00
2022-11-21T06:27:54.941Z,8.00
2022-11-21T06:28:54.921Z,12.00
2022-11-21T06:29:54.911Z,12.00
2022-11-21T06:30:54.895Z,12.00
2022-11-21T06:31:54.907Z,16.00
2022-11-21T06:32:54.897Z,16.00
2022-11-21T06:33:54.884Z,20.00
2022-11-21T06:34:54.858Z,24.00
2022-11-21T06:35:54.856Z,24.00
2022-11-21T06:36:54.831Z,24.00
2022-11-21T06:37:54.844Z,24.00
2022-11-21T06:38:54.823Z,28.00
2022-11-21T06:39:54.810Z,32.00
2022-11-21T06:40:54.796Z,32.00
2022-11-21T06:41:54.785Z,36.00
2022-11-21T06:42:54.772Z,36.00
2022-11-21T06:43:54.792Z,40.00
2022-11-21T06:44:54.744Z,44.00
2022-11-21T06:45:54.752Z,48.00
2022-11-21T06:46:54.737Z,48.00
2022-11-21T06:47:54.714Z,52.00
2022-11-21T06:48:54.718Z,56.00
2022-11-21T06:49:54.742Z,64.00
2022-11-21T06:50:54.683Z,64.00
2022-11-21T06:51:54.688Z,68.00
2022-11-21T06:52:54.655Z,72.00
2022-11-21T06:53:54.646Z,80.00
2022-11-21T06:54:54.643Z,84.00
2022-11-21T06:55:54.651Z,92.00
2022-11-21T06:56:54.634Z,100.00
2022-11-21T06:57:54.640Z,104.00
2022-11-21T06:58:54.592Z,120.00
2022-11-21T06:59:54.596Z,128.00
2022-11-21T07:00:54.650Z,140.00
2022-11-21T07:01:54.579Z,148.00
2022-11-21T07:02:57.594Z,160.00
2022-11-21T07:03:54.567Z,168.00
2022-11-21T07:04:54.529Z,180.00
2022-11-21T07:05:54.536Z,184.00
2022-11-21T07:06:54.504Z,192.00
2022-11-21T07:07:54.615Z,200.00
2022-11-21T07:09:17.441Z,208.00
2022-11-21T07:09:54.494Z,212.00
2022-11-21T07:11:23.004Z,220.00
2022-11-21T07:11:54.466Z,228.00
2022-11-21T07:12:54.453Z,240.00
2022-11-21T07:13:54.455Z,248.00
2022-11-21T07:14:54.428Z,260.00
2022-11-21T07:15:54.412Z,268.00
2022-11-21T07:16:54.413Z,276.00
2022-11-21T07:17:54.416Z,284.00
2022-11-21T07:18:54.409Z,296.00
2022-11-21T07:19:54.367Z,304.00
2022-11-21T07:20:54.382Z,320.00
2022-11-21T07:21:54.353Z,336.00
2022-11-21T07:22:54.376Z,344.00
2022-11-21T07:23:54.345Z,360.00
2022-11-21T07:24:54.321Z,364.00
2022-11-21T07:25:54.306Z,376.00
2022-11-21T07:26:54.296Z,384.00
2022-11-21T07:27:54.288Z,396.00
2022-11-21T07:28:54.545Z,400.00
2022-11-21T07:29:54.270Z,400.00
2022-11-21T07:30:54.250Z,400.00
2022-11-21T07:31:54.261Z,400.00
2022-11-21T07:32:54.233Z,400.00
2022-11-21T07:33:54.220Z,412.00
2022-11-21T07:34:54.250Z,416.00
2022-11-21T07:35:54.224Z,416.00
2022-11-21T07:36:54.217Z,420.00
2022-11-21T07:37:54.179Z,424.00
2022-11-21T07:38:54.162Z,420.00
2022-11-21T07:39:54.164Z,412.00
2022-11-21T07:40:54.164Z,408.00
2022-11-21T07:41:54.158Z,408.00
2022-11-21T07:42:54.125Z,412.00
2022-11-21T07:43:54.122Z,408.00
2022-11-21T07:44:54.099Z,416.00
2022-11-21T07:45:54.146Z,400.00
2022-11-21T07:46:54.079Z,380.00
2022-11-21T07:47:54.083Z,372.00
2022-11-21T07:48:54.068Z,380.00
2022-11-21T07:49:54.065Z,416.00
2022-11-21T07:50:54.121Z,480.00
2022-11-21T07:51:54.060Z,616.00
2022-11-21T07:52:54.018Z,696.00
2022-11-21T07:53:54.018Z,612.00
2022-11-21T07:54:53.999Z,560.00
2022-11-21T07:55:54.005Z,544.00
2022-11-21T07:56:54.000Z,536.00
2022-11-21T07:57:53.995Z,556.00
2022-11-21T07:58:54.026Z,568.00
2022-11-21T07:59:53.968Z,556.00
2022-11-21T08:00:53.937Z,564.00
2022-11-21T08:01:54.003Z,572.00
2022-11-21T08:02:53.921Z,616.00
2022-11-21T08:03:53.920Z,644.00
2022-11-21T08:04:53.957Z,636.00
2022-11-21T08:05:53.898Z,656.00
2022-11-21T08:06:53.879Z,616.00
2022-11-21T08:07:54.693Z,628.00
2022-11-21T08:08:53.857Z,676.00
2022-11-21T08:09:53.843Z,684.00
2022-11-21T08:10:53.841Z,672.00
2022-11-21T08:11:53.833Z,708.00
2022-11-21T08:12:53.823Z,764.00
2022-11-21T08:13:53.811Z,796.00
2022-11-21T08:14:53.812Z,712.00
2022-11-21T08:15:53.782Z,656.00
2022-11-21T08:16:53.767Z,660.00
2022-11-21T08:17:53.921Z,620.00
2022-11-21T08:18:53.753Z,580.00
2022-11-21T08:19:53.747Z,584.00
2022-11-21T08:20:53.733Z,604.00
2022-11-21T08:21:53.729Z,656.00
2022-11-21T08:22:53.708Z,744.00
2022-11-21T08:23:53.718Z,816.00
2022-11-21T08:24:53.685Z,764.00
2022-11-21T08:25:53.670Z,812.00
2022-11-21T08:26:53.670Z,800.00
2022-11-21T08:27:53.663Z,740.00
2022-11-21T08:28:59.627Z,856.00
2022-11-21T08:29:53.676Z,928.00
2022-11-21T08:30:53.624Z,904.00
2022-11-21T08:31:53.645Z,972.00
2022-11-21T08:32:53.654Z,836.00
2022-11-21T08:33:53.665Z,832.00
2022-11-21T08:34:53.595Z,724.00
2022-11-21T08:35:53.602Z,684.00
2022-11-21T08:36:53.562Z,672.00
2022-11-21T08:37:53.681Z,636.00
2022-11-21T08:38:53.540Z,632.00
2022-11-21T08:39:53.525Z,632.00
2022-11-21T08:40:53.683Z,672.00
2022-11-21T08:41:53.531Z,700.00
2022-11-21T08:42:53.510Z,748.00
2022-11-21T08:43:53.474Z,792.00
2022-11-21T08:44:53.471Z,840.00
2022-11-21T08:45:53.482Z,920.00
2022-11-21T08:46:53.488Z,916.00
2022-11-21T08:47:53.450Z,864.00
2022-11-21T08:48:53.434Z,832.00
2022-11-21T08:49:53.418Z,844.00
2022-11-21T08:50:53.415Z,852.00
2022-11-21T08:51:53.400Z,916.00
2022-11-21T08:52:53.388Z,880.00
2022-11-21T08:53:53.397Z,792.00
2022-11-21T08:54:53.372Z,788.00
2022-11-21T08:55:53.366Z,784.00
2022-11-21T08:56:54.003Z,804.00
2022-11-21T08:57:53.342Z,780.00
2022-11-21T08:58:53.329Z,776.00
2022-11-21T08:59:53.320Z,712.00
2022-11-21T09:00:53.330Z,720.00
2022-11-21T09:01:53.343Z,744.00
2022-11-21T09:02:53.278Z,692.00
2022-11-21T09:03:53.283Z,636.00
2022-11-21T09:04:53.248Z,648.00
2022-11-21T09:05:53.256Z,696.00
2022-11-21T09:06:53.240Z,708.00
2022-11-21T09:07:53.224Z,712.00
2022-11-21T09:08:53.210Z,728.00
2022-11-21T09:09:53.196Z,752.00
2022-11-21T09:10:53.196Z,752.00
2022-11-21T09:11:53.196Z,732.00
2022-11-21T09:12:53.183Z,768.00
2022-11-21T09:13:53.158Z,800.00
2022-11-21T09:14:53.153Z,760.00
2022-11-21T09:15:53.151Z,792.00
2022-11-21T09:16:55.777Z,864.00
2022-11-21T09:17:53.144Z,840.00
2022-11-21T09:18:53.108Z,808.00
2022-11-21T09:19:53.098Z,744.00
2022-11-21T09:20:53.085Z,740.00
2022-11-21T09:21:53.099Z,804.00
2022-11-21T09:22:53.079Z,808.00
2022-11-21T09:23:54.003Z,812.00
2022-11-21T09:24:53.043Z,816.00
2022-11-21T09:25:53.024Z,828.00
2022-11-21T09:26:53.018Z,800.00
2022-11-21T09:27:53.017Z,788.00
2022-11-21T09:28:53.105Z,808.00
2022-11-21T09:29:54.382Z,808.00
2022-11-21T09:30:52.994Z,828.00
2022-11-21T09:31:52.978Z,820.00
2022-11-21T09:32:52.966Z,812.00
2022-11-21T09:33:55.136Z,860.00
2022-11-21T09:34:52.940Z,912.00
2022-11-21T09:35:52.922Z,952.00
2022-11-21T09:36:52.919Z,932.00
2022-11-21T09:37:52.967Z,900.00
2022-11-21T09:38:52.907Z,924.00
2022-11-21T09:39:52.882Z,940.00
2022-11-21T09:40:52.888Z,956.00
2022-11-21T09:41:52.903Z,976.00
2022-11-21T09:42:52.860Z,1012.00
2022-11-21T09:43:55.736Z,1104.00
2022-11-21T09:44:52.847Z,1168.00
2022-11-21T09:45:52.806Z,1156.00
2022-11-21T09:46:52.819Z,1132.00
2022-11-21T09:47:52.822Z,1052.00
2022-11-21T09:48:52.804Z,1020.00
2022-11-21T09:49:52.785Z,1016.00
2022-11-21T09:50:54.192Z,952.00
2022-11-21T09:51:52.761Z,916.00
2022-11-21T09:52:52.751Z,896.00
2022-11-21T09:53:52.737Z,912.00
2022-11-21T09:54:52.727Z,940.00
2022-11-21T09:55:52.708Z,968.00
2022-11-21T09:56:52.715Z,956.00
2022-11-21T09:57:52.679Z,920.00
2022-11-21T09:58:52.681Z,864.00
2022-11-21T09:59:52.658Z,872.00
2022-11-21T10:00:52.735Z,888.00
2022-11-21T10:01:52.667Z,884.00
2022-11-21T10:02:52.634Z,880.00
2022-11-21T10:03:52.623Z,892.00
2022-11-21T10:04:52.632Z,924.00
2022-11-21T10:05:52.611Z,944.00
2022-11-21T10:06:52.611Z,964.00
2022-11-21T10:07:52.694Z,964.00
2022-11-21T10:08:52.570Z,952.00
2022-11-21T10:09:52.566Z,944.00
2022-11-21T10:10:52.550Z,936.00
2022-11-21T10:11:52.550Z,920.00
2022-11-21T10:12:52.537Z,936.00
2022-11-21T10:13:52.531Z,952.00
2022-11-21T10:14:52.550Z,956.00
2022-11-21T10:15:52.499Z,948.00
2022-11-21T10:16:52.491Z,952.00
2022-11-21T10:17:52.485Z,936.00
2022-11-21T10:18:52.474Z,932.00
2022-11-21T10:19:52.453Z,920.00
2022-11-21T10:20:52.455Z,932.00
2022-11-21T10:21:52.443Z,948.00
2022-11-21T10:22:52.465Z,920.00
2022-11-21T10:23:52.470Z,872.00
2022-11-21T10:24:52.404Z,848.00
2022-11-21T10:25:52.407Z,832.00
2022-11-21T10:26:52.390Z,844.00
2022-11-21T10:27:52.370Z,860.00
2022-11-21T10:28:52.390Z,844.00
2022-11-21T10:29:52.360Z,836.00
2022-11-21T10:30:52.351Z,832.00
2022-11-21T10:31:52.321Z,832.00
2022-11-21T10:32:52.314Z,832.00
2022-11-21T10:33:53.218Z,844.00
2022-11-21T10:34:52.300Z,856.00
2022-11-21T10:35:52.280Z,860.00
2022-11-21T10:36:52.277Z,888.00
2022-11-21T10:37:52.257Z,960.00
2022-11-21T10:38:52.636Z,1064.00
2022-11-21T10:39:52.248Z,1160.00
2022-11-21T10:40:52.306Z,1132.00
2022-11-21T10:41:52.281Z,1096.00
2022-11-21T10:42:52.209Z,1096.00
2022-11-21T10:43:52.191Z,1108.00
2022-11-21T10:44:52.200Z,1112.00
2022-11-21T10:45:52.173Z,1124.00
2022-11-21T10:46:52.176Z,1116.00
2022-11-21T10:47:52.165Z,1096.00
2022-11-21T10:48:52.164Z,1084.00
2022-11-21T10:49:52.164Z,1044.00
2022-11-21T10:50:52.192Z,1024.00
2022-11-21T10:51:52.149Z,1008.00
2022-11-21T10:52:52.106Z,996.00
2022-11-21T10:53:52.096Z,992.00
2022-11-21T10:54:52.086Z,996.00
2022-11-21T10:55:52.103Z,1008.00
2022-11-21T10:56:52.067Z,1020.00
2022-11-21T10:57:52.047Z,1004.00
2022-11-21T10:58:52.049Z,988.00
2022-11-21T10:59:52.055Z,980.00
2022-11-21T11:00:52.072Z,944.00
2022-11-21T11:01:52.015Z,920.00
2022-11-21T11:02:52.009Z,888.00
2022-11-21T11:04:13.514Z,856.00
2022-11-21T11:04:52.643Z,848.00
2022-11-21T11:05:51.975Z,860.00
2022-11-21T11:06:51.951Z,904.00
2022-11-21T11:07:51.999Z,944.00
2022-11-21T11:08:51.940Z,948.00
2022-11-21T11:09:51.924Z,928.00
2022-11-21T11:10:51.945Z,924.00
2022-11-21T11:11:51.915Z,920.00
2022-11-21T11:12:51.910Z,904.00
2022-11-21T11:13:52.079Z,900.00
2022-11-21T11:14:51.876Z,900.00
2022-11-21T11:15:51.868Z,900.00
2022-11-21T11:16:51.864Z,920.00
2022-11-21T11:17:51.837Z,940.00
2022-11-21T11:18:51.875Z,908.00
2022-11-21T11:19:51.805Z,872.00
2022-11-21T11:20:51.799Z,908.00
2022-11-21T11:21:51.811Z,1004.00
2022-11-21T11:22:51.781Z,1144.00
2022-11-21T11:23:51.771Z,1240.00
2022-11-21T11:24:54.987Z,1208.00
2022-11-21T11:25:51.757Z,1128.00
2022-11-21T11:26:51.781Z,1108.00
2022-11-21T11:27:51.717Z,1160.00
2022-11-21T11:28:51.715Z,1172.00
2022-11-21T11:29:53.099Z,1184.00
2022-11-21T11:30:51.696Z,1236.00
2022-11-21T11:31:51.731Z,1224.00
2022-11-21T11:32:51.727Z,1264.00
2022-11-21T11:33:51.679Z,1292.00
2022-11-21T11:34:51.655Z,1228.00
2022-11-21T11:35:51.647Z,1168.00
2022-11-21T11:36:51.642Z,1112.00
2022-11-21T11:37:51.625Z,1072.00
2022-11-21T11:38:51.628Z,1048.00
2022-11-21T11:39:51.615Z,988.00
2022-11-21T11:40:51.596Z,936.00
2022-11-21T11:41:51.582Z,920.00
2022-11-21T11:42:51.588Z,920.00
2022-11-21T11:43:51.587Z,960.00
2022-11-21T11:44:51.559Z,1072.00
2022-11-21T11:45:51.530Z,1204.00
2022-11-21T11:46:51.550Z,1344.00
2022-11-21T11:47:54.670Z,1452.00
2022-11-21T11:49:17.373Z,1456.00
2022-11-21T11:49:51.494Z,1312.00
2022-11-21T11:50:51.490Z,1136.00
2022-11-21T11:51:51.473Z,1056.00
2022-11-21T11:52:51.504Z,1040.00
2022-11-21T11:53:51.449Z,1028.00
2022-11-21T11:54:51.445Z,988.00
2022-11-21T11:55:51.422Z,924.00
2022-11-21T11:56:51.463Z,904.00
2022-11-21T11:57:51.415Z,920.00
2022-11-21T11:58:52.026Z,976.00
2022-11-21T11:59:51.380Z,1004.00
2022-11-21T12:00:51.371Z,1016.00
2022-11-21T12:01:51.390Z,940.00
2022-11-21T12:02:51.375Z,876.00
2022-11-21T12:03:57.682Z,828.00
2022-11-21T12:04:51.334Z,816.00
2022-11-21T12:05:51.342Z,808.00
2022-11-21T12:08:40.193Z,784.00
2022-11-21T12:08:51.350Z,764.00
2022-11-21T12:09:51.301Z,744.00
2022-11-21T12:10:51.305Z,752.00
2022-11-21T12:11:51.252Z,772.00
2022-11-21T12:12:51.246Z,784.00
2022-11-21T12:13:51.236Z,780.00
2022-11-21T12:14:51.238Z,704.00
2022-11-21T12:15:51.308Z,668.00
2022-11-21T12:16:51.208Z,644.00
2022-11-21T12:17:51.214Z,628.00
2022-11-21T12:18:51.210Z,636.00
2022-11-21T12:19:51.259Z,652.00
2022-11-21T12:20:51.161Z,660.00
2022-11-21T12:21:51.161Z,672.00
2022-11-21T12:22:51.141Z,712.00
2022-11-21T12:23:51.144Z,700.00
2022-11-21T12:24:51.149Z,660.00
2022-11-21T12:25:51.098Z,632.00
2022-11-21T12:26:51.128Z,596.00
2022-11-21T12:27:51.081Z,568.00
2022-11-21T12:28:51.109Z,556.00
2022-11-21T12:29:51.097Z,552.00
2022-11-21T12:30:51.630Z,556.00
2022-11-21T12:31:51.053Z,552.00
2022-11-21T12:32:51.041Z,556.00
2022-11-21T12:33:51.019Z,564.00
2022-11-21T12:34:51.030Z,576.00
2022-11-21T12:35:51.010Z,580.00
2022-11-21T12:36:50.994Z,576.00
2022-11-21T12:37:50.974Z,552.00
2022-11-21T12:38:50.973Z,532.00
2022-11-21T12:39:50.949Z,532.00
2022-11-21T12:40:50.971Z,524.00
2022-11-21T12:41:50.950Z,532.00
2022-11-21T12:42:50.948Z,544.00
2022-11-21T12:43:57.266Z,540.00
2022-11-21T12:44:51.661Z,548.00
2022-11-21T12:45:50.893Z,572.00
2022-11-21T12:46:50.896Z,564.00
2022-11-21T12:47:50.897Z,560.00
2022-11-21T12:48:50.861Z,552.00
2022-11-21T12:49:54.680Z,548.00
2022-11-21T12:50:50.842Z,552.00
2022-11-21T12:51:50.886Z,552.00
2022-11-21T12:52:50.838Z,532.00